sensor_id;sensor_type;location;lat;lon;timestamp;temperature;humidity
21298;DHT22;10808;48.010;11.326;2023-03-23T00:01:49;9.80;99.40
21298;DHT22;10808;48.010;11.326;2023-03-23T00:04:16;9.70;99.40
21298;DHT22;10808;48.010;11.326;2023-03-23T00:06:42;9.70;99.60
21298;DHT22;10808;48.010;11.326;2023-03-23T00:09:12;9.70;99.70
21298;DHT22;10808;48.010;11.326;2023-03-23T00:11:38;9.70;99.70
21298;DHT22;10808;48.010;11.326;2023-03-23T00:14:05;9.70;99.80
21298;DHT22;10808;48.010;11.326;2023-03-23T00:16:33;9.70;99.80
21298;DHT22;10808;48.010;11.326;2023-03-23T00:19:04;9.70;99.90
21298;DHT22;10808;48.010;11.326;2023-03-23T00:21:33;9.70;99.90
21298;DHT22;10808;48.010;11.326;2023-03-23T00:24:05;9.70;99.90
21298;DHT22;10808;48.010;11.326;2023-03-23T00:26:33;9.70;99.90
21298;DHT22;10808;48.010;11.326;2023-03-23T00:29:05;9.70;99.90
21298;DHT22;10808;48.010;11.326;2023-03-23T00:31:31;9.70;99.90
21298;DHT22;10808;48.010;11.326;2023-03-23T00:33:59;9.70;99.90
21298;DHT22;10808;48.010;11.326;2023-03-23T00:36:27;9.70;99.90
21298;DHT22;10808;48.010;11.326;2023-03-23T00:38:54;9.70;99.90
21298;DHT22;10808;48.010;11.326;2023-03-23T00:41:24;9.60;99.90
21298;DHT22;10808;48.010;11.326;2023-03-23T00:43:54;9.60;99.90
21298;DHT22;10808;48.010;11.326;2023-03-23T00:46:20;9.60;99.90
21298;DHT22;10808;48.010;11.326;2023-03-23T00:48:47;9.60;99.90
21298;DHT22;10808;48.010;11.326;2023-03-23T00:51:13;9.60;99.90
21298;DHT22;10808;48.010;11.326;2023-03-23T00:53:39;9.60;99.90
21298;DHT22;10808;48.010;11.326;2023-03-23T00:56:07;9.70;99.90
21298;DHT22;10808;48.010;11.326;2023-03-23T00:58:34;9.70;99.90
21298;DHT22;10808;48.010;11.326;2023-03-23T01:01:00;9.60;99.90
21298;DHT22;10808;48.010;11.326;2023-03-23T01:03:26;9.60;99.90
21298;DHT22;10808;48.010;11.326;2023-03-23T01:05:54;9.60;99.90
21298;DHT22;10808;48.010;11.326;2023-03-23T01:08:21;9.60;99.90
21298;DHT22;10808;48.010;11.326;2023-03-23T01:10:48;9.60;99.90
21298;DHT22;10808;48.010;11.326;2023-03-23T01:13:15;9.60;99.90
21298;DHT22;10808;48.010;11.326;2023-03-23T01:15:42;9.60;99.90
21298;DHT22;10808;48.010;11.326;2023-03-23T01:18:09;9.60;99.90
21298;DHT22;10808;48.010;11.326;2023-03-23T01:20:36;9.70;99.90
21298;DHT22;10808;48.010;11.326;2023-03-23T01:23:03;9.70;99.90
21298;DHT22;10808;48.010;11.326;2023-03-23T01:25:31;9.70;99.90
21298;DHT22;10808;48.010;11.326;2023-03-23T01:27:58;9.70;99.90
21298;DHT22;10808;48.010;11.326;2023-03-23T01:30:25;9.70;99.90
21298;DHT22;10808;48.010;11.326;2023-03-23T01:32:51;9.70;99.90
21298;DHT22;10808;48.010;11.326;2023-03-23T01:35:18;9.70;99.90
21298;DHT22;10808;48.010;11.326;2023-03-23T01:37:44;9.70;99.90
21298;DHT22;10808;48.010;11.326;2023-03-23T01:40:10;9.60;99.90
21298;DHT22;10808;48.010;11.326;2023-03-23T01:42:38;9.60;99.90
21298;DHT22;10808;48.010;11.326;2023-03-23T01:47:47;9.60;99.90
21298;DHT22;10808;48.010;11.326;2023-03-23T01:50:14;9.60;99.90
21298;DHT22;10808;48.010;11.326;2023-03-23T01:52:40;9.60;99.90
21298;DHT22;10808;48.010;11.326;2023-03-23T01:55:07;9.50;99.90
21298;DHT22;10808;48.010;11.326;2023-03-23T01:57:34;9.50;99.90
21298;DHT22;10808;48.010;11.326;2023-03-23T02:00:04;9.50;99.90
21298;DHT22;10808;48.010;11.326;2023-03-23T02:02:42;9.50;99.90
21298;DHT22;10808;48.010;11.326;2023-03-23T02:05:14;9.50;99.90
21298;DHT22;10808;48.010;11.326;2023-03-23T02:07:41;9.50;99.90
21298;DHT22;10808;48.010;11.326;2023-03-23T02:10:08;9.50;99.90
21298;DHT22;10808;48.010;11.326;2023-03-23T02:12:35;9.40;99.90
21298;DHT22;10808;48.010;11.326;2023-03-23T02:15:01;9.40;99.90
21298;DHT22;10808;48.010;11.326;2023-03-23T02:18:03;9.40;99.90
21298;DHT22;10808;48.010;11.326;2023-03-23T02:21:08;9.40;99.90
21298;DHT22;10808;48.010;11.326;2023-03-23T02:23:51;9.40;99.90
21298;DHT22;10808;48.010;11.326;2023-03-23T02:26:34;9.40;99.90
21298;DHT22;10808;48.010;11.326;2023-03-23T02:29:25;9.40;99.90
21298;DHT22;10808;48.010;11.326;2023-03-23T02:32:21;9.40;99.90
21298;DHT22;10808;48.010;11.326;2023-03-23T02:35:03;9.30;99.90
21298;DHT22;10808;48.010;11.326;2023-03-23T02:37:37;9.30;99.90
21298;DHT22;10808;48.010;11.326;2023-03-23T02:40:14;9.30;99.90
21298;DHT22;10808;48.010;11.326;2023-03-23T02:42:45;9.30;99.90
21298;DHT22;10808;48.010;11.326;2023-03-23T02:45:14;9.30;99.90
21298;DHT22;10808;48.010;11.326;2023-03-23T02:47:41;9.30;99.90
21298;DHT22;10808;48.010;11.326;2023-03-23T02:50:11;9.30;99.90
21298;DHT22;10808;48.010;11.326;2023-03-23T02:52:40;9.30;99.90
21298;DHT22;10808;48.010;11.326;2023-03-23T02:55:08;9.30;99.90
21298;DHT22;10808;48.010;11.326;2023-03-23T02:57:38;9.30;99.90
21298;DHT22;10808;48.010;11.326;2023-03-23T03:00:06;9.30;99.90
21298;DHT22;10808;48.010;11.326;2023-03-23T03:02:38;9.20;99.90
21298;DHT22;10808;48.010;11.326;2023-03-23T03:05:14;9.20;99.90
21298;DHT22;10808;48.010;11.326;2023-03-23T03:10:27;9.20;99.90
21298;DHT22;10808;48.010;11.326;2023-03-23T03:18:32;9.10;99.90
21298;DHT22;10808;48.010;11.326;2023-03-23T03:21:07;9.10;99.90
21298;DHT22;10808;48.010;11.326;2023-03-23T03:23:37;9.10;99.90
21298;DHT22;10808;48.010;11.326;2023-03-23T03:26:04;9.10;99.90
21298;DHT22;10808;48.010;11.326;2023-03-23T03:28:32;9.10;99.90
21298;DHT22;10808;48.010;11.326;2023-03-23T03:31:02;9.10;99.90
21298;DHT22;10808;48.010;11.326;2023-03-23T03:33:30;9.00;99.90
21298;DHT22;10808;48.010;11.326;2023-03-23T03:35:59;9.00;99.90
21298;DHT22;10808;48.010;11.326;2023-03-23T03:38:27;9.00;99.90
21298;DHT22;10808;48.010;11.326;2023-03-23T03:40:54;8.90;99.90
21298;DHT22;10808;48.010;11.326;2023-03-23T03:43:21;8.80;99.90
21298;DHT22;10808;48.010;11.326;2023-03-23T03:45:47;8.80;99.90
21298;DHT22;10808;48.010;11.326;2023-03-23T03:48:13;8.80;99.90
21298;DHT22;10808;48.010;11.326;2023-03-23T03:50:40;8.80;99.90
21298;DHT22;10808;48.010;11.326;2023-03-23T03:53:06;8.70;99.90
21298;DHT22;10808;48.010;11.326;2023-03-23T03:55:32;8.70;99.90
21298;DHT22;10808;48.010;11.326;2023-03-23T03:58:02;8.70;99.90
21298;DHT22;10808;48.010;11.326;2023-03-23T04:00:31;8.70;99.90
21298;DHT22;10808;48.010;11.326;2023-03-23T04:02:57;8.70;99.90
21298;DHT22;10808;48.010;11.326;2023-03-23T04:05:25;8.60;99.90
21298;DHT22;10808;48.010;11.326;2023-03-23T04:07:55;8.50;99.90
21298;DHT22;10808;48.010;11.326;2023-03-23T04:10:27;8.60;99.90
21298;DHT22;10808;48.010;11.326;2023-03-23T04:12:55;8.60;99.90
21298;DHT22;10808;48.010;11.326;2023-03-23T04:15:22;8.60;99.90
21298;DHT22;10808;48.010;11.326;2023-03-23T04:17:48;8.60;99.90
21298;DHT22;10808;48.010;11.326;2023-03-23T04:20:15;8.60;99.90
21298;DHT22;10808;48.010;11.326;2023-03-23T04:22:49;8.60;99.90
21298;DHT22;10808;48.010;11.326;2023-03-23T04:25:17;8.60;99.90
21298;DHT22;10808;48.010;11.326;2023-03-23T04:27:47;8.60;99.90
21298;DHT22;10808;48.010;11.326;2023-03-23T04:30:22;8.60;99.90
21298;DHT22;10808;48.010;11.326;2023-03-23T04:32:49;8.60;99.90
21298;DHT22;10808;48.010;11.326;2023-03-23T04:35:18;8.60;99.90
21298;DHT22;10808;48.010;11.326;2023-03-23T04:37:45;8.70;99.90
21298;DHT22;10808;48.010;11.326;2023-03-23T04:40:12;8.70;99.90
21298;DHT22;10808;48.010;11.326;2023-03-23T04:42:41;8.70;99.90
21298;DHT22;10808;48.010;11.326;2023-03-23T04:45:16;8.70;99.90
21298;DHT22;10808;48.010;11.326;2023-03-23T04:47:48;8.70;99.90
21298;DHT22;10808;48.010;11.326;2023-03-23T04:50:21;8.70;99.90
21298;DHT22;10808;48.010;11.326;2023-03-23T04:52:50;8.70;99.90
21298;DHT22;10808;48.010;11.326;2023-03-23T04:55:18;8.70;99.90
21298;DHT22;10808;48.010;11.326;2023-03-23T04:57:44;8.70;99.90
21298;DHT22;10808;48.010;11.326;2023-03-23T05:00:11;8.70;99.90
21298;DHT22;10808;48.010;11.326;2023-03-23T05:02:40;8.70;99.90
21298;DHT22;10808;48.010;11.326;2023-03-23T05:05:08;8.70;99.90
21298;DHT22;10808;48.010;11.326;2023-03-23T05:07:34;8.70;99.90
21298;DHT22;10808;48.010;11.326;2023-03-23T05:10:00;8.70;99.90
21298;DHT22;10808;48.010;11.326;2023-03-23T05:12:26;8.70;99.90
21298;DHT22;10808;48.010;11.326;2023-03-23T05:14:52;8.80;99.90
21298;DHT22;10808;48.010;11.326;2023-03-23T05:17:18;8.80;99.90
21298;DHT22;10808;48.010;11.326;2023-03-23T05:19:44;8.80;99.90
21298;DHT22;10808;48.010;11.326;2023-03-23T05:22:16;8.80;99.90
21298;DHT22;10808;48.010;11.326;2023-03-23T05:24:42;8.80;99.90
21298;DHT22;10808;48.010;11.326;2023-03-23T05:27:09;8.80;99.90
21298;DHT22;10808;48.010;11.326;2023-03-23T05:29:35;8.90;99.90
21298;DHT22;10808;48.010;11.326;2023-03-23T05:32:03;8.90;99.90
21298;DHT22;10808;48.010;11.326;2023-03-23T05:34:29;8.90;99.90
21298;DHT22;10808;48.010;11.326;2023-03-23T05:36:59;8.90;99.90
21298;DHT22;10808;48.010;11.326;2023-03-23T05:39:26;8.90;99.90
21298;DHT22;10808;48.010;11.326;2023-03-23T05:41:53;9.00;99.90
21298;DHT22;10808;48.010;11.326;2023-03-23T05:44:19;8.90;99.90
21298;DHT22;10808;48.010;11.326;2023-03-23T05:46:46;9.00;99.90
21298;DHT22;10808;48.010;11.326;2023-03-23T05:49:14;9.00;99.90
21298;DHT22;10808;48.010;11.326;2023-03-23T05:51:43;9.00;99.90
21298;DHT22;10808;48.010;11.326;2023-03-23T05:54:11;9.00;99.90
21298;DHT22;10808;48.010;11.326;2023-03-23T05:56:37;9.00;99.90
21298;DHT22;10808;48.010;11.326;2023-03-23T05:59:04;9.10;99.90
21298;DHT22;10808;48.010;11.326;2023-03-23T06:01:30;9.10;99.90
21298;DHT22;10808;48.010;11.326;2023-03-23T06:03:57;9.10;99.90
21298;DHT22;10808;48.010;11.326;2023-03-23T06:06:28;9.20;99.90
21298;DHT22;10808;48.010;11.326;2023-03-23T06:08:56;9.20;99.90
21298;DHT22;10808;48.010;11.326;2023-03-23T06:11:23;9.20;99.90
21298;DHT22;10808;48.010;11.326;2023-03-23T06:13:50;9.30;99.90
21298;DHT22;10808;48.010;11.326;2023-03-23T06:16:16;9.30;99.90
21298;DHT22;10808;48.010;11.326;2023-03-23T06:18:42;9.40;99.90
21298;DHT22;10808;48.010;11.326;2023-03-23T06:21:09;9.40;99.90
21298;DHT22;10808;48.010;11.326;2023-03-23T06:23:36;9.50;99.90
21298;DHT22;10808;48.010;11.326;2023-03-23T06:26:05;9.50;99.90
21298;DHT22;10808;48.010;11.326;2023-03-23T06:28:33;9.50;99.90
21298;DHT22;10808;48.010;11.326;2023-03-23T06:31:00;9.60;99.90
21298;DHT22;10808;48.010;11.326;2023-03-23T06:33:27;9.60;99.90
21298;DHT22;10808;48.010;11.326;2023-03-23T06:35:53;9.60;99.90
21298;DHT22;10808;48.010;11.326;2023-03-23T06:38:21;9.70;99.90
21298;DHT22;10808;48.010;11.326;2023-03-23T06:40:47;9.80;99.90
21298;DHT22;10808;48.010;11.326;2023-03-23T06:43:14;9.70;99.90
21298;DHT22;10808;48.010;11.326;2023-03-23T06:45:40;9.80;99.90
21298;DHT22;10808;48.010;11.326;2023-03-23T06:48:06;9.80;99.90
21298;DHT22;10808;48.010;11.326;2023-03-23T06:50:32;9.90;99.90
21298;DHT22;10808;48.010;11.326;2023-03-23T06:52:58;9.90;99.90
21298;DHT22;10808;48.010;11.326;2023-03-23T06:55:24;9.90;99.90
21298;DHT22;10808;48.010;11.326;2023-03-23T06:57:51;10.00;99.90
21298;DHT22;10808;48.010;11.326;2023-03-23T07:00:17;10.00;99.90
21298;DHT22;10808;48.010;11.326;2023-03-23T07:02:43;10.10;99.90
21298;DHT22;10808;48.010;11.326;2023-03-23T07:05:11;10.10;99.90
21298;DHT22;10808;48.010;11.326;2023-03-23T07:07:38;10.20;99.90
21298;DHT22;10808;48.010;11.326;2023-03-23T07:10:07;10.30;99.90
21298;DHT22;10808;48.010;11.326;2023-03-23T07:12:35;10.40;99.90
21298;DHT22;10808;48.010;11.326;2023-03-23T07:15:02;10.50;99.90
21298;DHT22;10808;48.010;11.326;2023-03-23T07:17:29;10.70;99.90
21298;DHT22;10808;48.010;11.326;2023-03-23T07:19:55;10.70;99.90
21298;DHT22;10808;48.010;11.326;2023-03-23T07:22:21;10.90;99.90
21298;DHT22;10808;48.010;11.326;2023-03-23T07:24:47;11.00;99.90
21298;DHT22;10808;48.010;11.326;2023-03-23T07:27:13;11.10;99.90
21298;DHT22;10808;48.010;11.326;2023-03-23T07:29:39;11.30;99.90
21298;DHT22;10808;48.010;11.326;2023-03-23T07:32:08;11.50;99.90
21298;DHT22;10808;48.010;11.326;2023-03-23T07:34:36;11.60;99.90
21298;DHT22;10808;48.010;11.326;2023-03-23T07:37:03;11.80;99.90
21298;DHT22;10808;48.010;11.326;2023-03-23T07:39:29;11.90;99.90
21298;DHT22;10808;48.010;11.326;2023-03-23T07:41:55;12.00;99.90
21298;DHT22;10808;48.010;11.326;2023-03-23T07:44:22;12.20;99.90
21298;DHT22;10808;48.010;11.326;2023-03-23T07:46:48;12.30;99.90
21298;DHT22;10808;48.010;11.326;2023-03-23T07:49:16;12.40;99.90
21298;DHT22;10808;48.010;11.326;2023-03-23T07:51:43;12.50;99.90
21298;DHT22;10808;48.010;11.326;2023-03-23T07:54:10;12.60;99.90
21298;DHT22;10808;48.010;11.326;2023-03-23T07:56:37;12.80;99.90
21298;DHT22;10808;48.010;11.326;2023-03-23T07:59:06;12.90;99.80
21298;DHT22;10808;48.010;11.326;2023-03-23T08:01:33;13.00;99.40
21298;DHT22;10808;48.010;11.326;2023-03-23T08:03:59;13.10;99.60
21298;DHT22;10808;48.010;11.326;2023-03-23T08:06:27;13.20;99.30
21298;DHT22;10808;48.010;11.326;2023-03-23T08:08:53;13.30;99.40
21298;DHT22;10808;48.010;11.326;2023-03-23T08:11:20;13.40;99.00
21298;DHT22;10808;48.010;11.326;2023-03-23T08:13:47;13.50;98.80
21298;DHT22;10808;48.010;11.326;2023-03-23T08:16:13;13.50;98.80
21298;DHT22;10808;48.010;11.326;2023-03-23T08:18:39;13.60;98.90
21298;DHT22;10808;48.010;11.326;2023-03-23T08:21:06;13.70;98.90
21298;DHT22;10808;48.010;11.326;2023-03-23T08:23:36;13.80;98.10
21298;DHT22;10808;48.010;11.326;2023-03-23T08:26:06;13.90;98.20
21298;DHT22;10808;48.010;11.326;2023-03-23T08:28:34;14.00;98.10
21298;DHT22;10808;48.010;11.326;2023-03-23T08:31:05;14.00;97.80
21298;DHT22;10808;48.010;11.326;2023-03-23T08:33:33;14.10;97.90
21298;DHT22;10808;48.010;11.326;2023-03-23T08:36:00;14.20;97.80
21298;DHT22;10808;48.010;11.326;2023-03-23T08:38:34;14.30;97.60
21298;DHT22;10808;48.010;11.326;2023-03-23T08:41:11;14.40;97.40
21298;DHT22;10808;48.010;11.326;2023-03-23T08:43:37;14.40;97.20
21298;DHT22;10808;48.010;11.326;2023-03-23T08:46:06;14.50;97.10
21298;DHT22;10808;48.010;11.326;2023-03-23T08:48:35;14.60;97.00
21298;DHT22;10808;48.010;11.326;2023-03-23T08:51:15;14.70;96.60
21298;DHT22;10808;48.010;11.326;2023-03-23T08:53:46;14.80;96.90
21298;DHT22;10808;48.010;11.326;2023-03-23T08:56:12;14.90;96.90
21298;DHT22;10808;48.010;11.326;2023-03-23T08:58:39;15.00;96.70
21298;DHT22;10808;48.010;11.326;2023-03-23T09:01:06;15.10;96.30
21298;DHT22;10808;48.010;11.326;2023-03-23T09:03:33;15.20;96.10
21298;DHT22;10808;48.010;11.326;2023-03-23T09:06:03;15.30;96.10
21298;DHT22;10808;48.010;11.326;2023-03-23T09:08:30;15.50;95.90
21298;DHT22;10808;48.010;11.326;2023-03-23T09:11:03;15.60;95.70
21298;DHT22;10808;48.010;11.326;2023-03-23T09:13:29;15.70;95.60
21298;DHT22;10808;48.010;11.326;2023-03-23T09:15:55;15.70;95.10
21298;DHT22;10808;48.010;11.326;2023-03-23T09:18:21;15.70;94.80
21298;DHT22;10808;48.010;11.326;2023-03-23T09:20:49;15.70;94.60
21298;DHT22;10808;48.010;11.326;2023-03-23T09:23:16;15.80;94.90
21298;DHT22;10808;48.010;11.326;2023-03-23T09:25:42;15.90;94.90
21298;DHT22;10808;48.010;11.326;2023-03-23T09:28:10;15.90;94.80
21298;DHT22;10808;48.010;11.326;2023-03-23T09:30:38;16.00;94.80
21298;DHT22;10808;48.010;11.326;2023-03-23T09:33:07;16.10;95.10
21298;DHT22;10808;48.010;11.326;2023-03-23T09:35:34;16.10;94.80
21298;DHT22;10808;48.010;11.326;2023-03-23T09:38:03;16.20;94.70
21298;DHT22;10808;48.010;11.326;2023-03-23T09:40:31;16.30;94.80
21298;DHT22;10808;48.010;11.326;2023-03-23T09:51:40;16.90;94.10
21298;DHT22;10808;48.010;11.326;2023-03-23T09:54:24;17.10;94.20
21298;DHT22;10808;48.010;11.326;2023-03-23T09:56:57;17.30;94.20
21298;DHT22;10808;48.010;11.326;2023-03-23T09:59:31;17.40;93.80
21298;DHT22;10808;48.010;11.326;2023-03-23T10:02:15;17.40;93.50
21298;DHT22;10808;48.010;11.326;2023-03-23T10:04:46;17.70;94.20
21298;DHT22;10808;48.010;11.326;2023-03-23T10:07:23;17.80;92.70
21298;DHT22;10808;48.010;11.326;2023-03-23T10:10:00;17.90;92.40
21298;DHT22;10808;48.010;11.326;2023-03-23T10:12:39;18.00;91.40
21298;DHT22;10808;48.010;11.326;2023-03-23T10:15:16;18.10;90.80
21298;DHT22;10808;48.010;11.326;2023-03-23T10:20:27;18.30;91.30
21298;DHT22;10808;48.010;11.326;2023-03-23T10:28:39;18.60;89.40
21298;DHT22;10808;48.010;11.326;2023-03-23T10:31:31;18.70;88.80
21298;DHT22;10808;48.010;11.326;2023-03-23T10:34:03;18.80;87.20
21298;DHT22;10808;48.010;11.326;2023-03-23T10:39:58;18.90;86.10
21298;DHT22;10808;48.010;11.326;2023-03-23T10:42:33;18.90;86.40
21298;DHT22;10808;48.010;11.326;2023-03-23T10:50:37;18.80;86.30
21298;DHT22;10808;48.010;11.326;2023-03-23T10:53:17;18.70;87.00
21298;DHT22;10808;48.010;11.326;2023-03-23T10:55:45;18.70;87.00
21298;DHT22;10808;48.010;11.326;2023-03-23T10:58:27;18.60;86.50
21298;DHT22;10808;48.010;11.326;2023-03-23T11:00:59;18.60;87.30
21298;DHT22;10808;48.010;11.326;2023-03-23T11:03:42;18.50;86.70
21298;DHT22;10808;48.010;11.326;2023-03-23T11:06:23;18.60;89.30
21298;DHT22;10808;48.010;11.326;2023-03-23T11:09:01;18.60;88.30
21298;DHT22;10808;48.010;11.326;2023-03-23T11:11:31;18.60;88.40
21298;DHT22;10808;48.010;11.326;2023-03-23T11:14:11;18.60;88.70
21298;DHT22;10808;48.010;11.326;2023-03-23T11:16:45;18.60;88.50
21298;DHT22;10808;48.010;11.326;2023-03-23T11:19:21;18.60;88.30
21298;DHT22;10808;48.010;11.326;2023-03-23T11:21:53;18.50;87.40
21298;DHT22;10808;48.010;11.326;2023-03-23T11:24:26;18.40;87.10
21298;DHT22;10808;48.010;11.326;2023-03-23T11:26:59;18.40;88.10
21298;DHT22;10808;48.010;11.326;2023-03-23T11:29:32;18.60;88.20
21298;DHT22;10808;48.010;11.326;2023-03-23T11:34:44;18.80;88.30
21298;DHT22;10808;48.010;11.326;2023-03-23T11:39:53;18.90;87.00
21298;DHT22;10808;48.010;11.326;2023-03-23T11:42:22;18.90;87.40
21298;DHT22;10808;48.010;11.326;2023-03-23T11:44:48;19.00;86.90
21298;DHT22;10808;48.010;11.326;2023-03-23T11:47:27;19.00;87.10
21298;DHT22;10808;48.010;11.326;2023-03-23T11:50:04;19.20;87.10
21298;DHT22;10808;48.010;11.326;2023-03-23T11:55:30;19.60;86.40
21298;DHT22;10808;48.010;11.326;2023-03-23T11:58:11;19.70;84.20
21298;DHT22;10808;48.010;11.326;2023-03-23T12:00:57;19.80;83.90
21298;DHT22;10808;48.010;11.326;2023-03-23T12:06:06;20.00;82.50
21298;DHT22;10808;48.010;11.326;2023-03-23T12:11:32;20.00;80.70
21298;DHT22;10808;48.010;11.326;2023-03-23T12:19:43;20.10;80.40
21298;DHT22;10808;48.010;11.326;2023-03-23T12:33:42;19.90;80.20
21298;DHT22;10808;48.010;11.326;2023-03-23T12:36:34;20.00;80.40
21298;DHT22;10808;48.010;11.326;2023-03-23T12:41:54;19.90;81.20
21298;DHT22;10808;48.010;11.326;2023-03-23T12:44:36;19.90;79.10
21298;DHT22;10808;48.010;11.326;2023-03-23T12:47:19;19.80;81.10
21298;DHT22;10808;48.010;11.326;2023-03-23T12:49:56;19.80;79.80
21298;DHT22;10808;48.010;11.326;2023-03-23T12:57:49;19.60;79.50
21298;DHT22;10808;48.010;11.326;2023-03-23T13:00:31;19.50;78.60
21298;DHT22;10808;48.010;11.326;2023-03-23T13:03:10;19.30;78.40
21298;DHT22;10808;48.010;11.326;2023-03-23T13:05:47;19.20;77.80
21298;DHT22;10808;48.010;11.326;2023-03-23T13:08:36;19.20;78.50
21298;DHT22;10808;48.010;11.326;2023-03-23T13:11:14;19.00;77.80
21298;DHT22;10808;48.010;11.326;2023-03-23T13:24:19;19.00;80.20
21298;DHT22;10808;48.010;11.326;2023-03-23T13:26:49;18.90;80.00
21298;DHT22;10808;48.010;11.326;2023-03-23T13:29:22;19.00;80.00
21298;DHT22;10808;48.010;11.326;2023-03-23T13:32:11;18.90;80.10
21298;DHT22;10808;48.010;11.326;2023-03-23T13:34:39;18.90;80.10
21298;DHT22;10808;48.010;11.326;2023-03-23T13:37:24;18.90;80.80
21298;DHT22;10808;48.010;11.326;2023-03-23T13:39:57;19.00;82.00
21298;DHT22;10808;48.010;11.326;2023-03-23T13:42:29;19.00;82.30
21298;DHT22;10808;48.010;11.326;2023-03-23T13:45:35;19.00;81.70
21298;DHT22;10808;48.010;11.326;2023-03-23T13:51:00;18.80;80.60
21298;DHT22;10808;48.010;11.326;2023-03-23T13:53:44;18.70;80.70
21298;DHT22;10808;48.010;11.326;2023-03-23T13:56:20;18.70;81.90
21298;DHT22;10808;48.010;11.326;2023-03-23T13:59:16;18.80;82.00
21298;DHT22;10808;48.010;11.326;2023-03-23T14:01:43;18.80;81.80
21298;DHT22;10808;48.010;11.326;2023-03-23T14:04:15;18.80;82.20
21298;DHT22;10808;48.010;11.326;2023-03-23T14:06:42;18.70;82.00
21298;DHT22;10808;48.010;11.326;2023-03-23T14:09:28;18.70;82.70
21298;DHT22;10808;48.010;11.326;2023-03-23T14:12:00;18.70;82.70
21298;DHT22;10808;48.010;11.326;2023-03-23T14:14:41;18.70;83.30
21298;DHT22;10808;48.010;11.326;2023-03-23T14:17:28;18.70;82.70
21298;DHT22;10808;48.010;11.326;2023-03-23T14:19:58;18.60;83.20
21298;DHT22;10808;48.010;11.326;2023-03-23T14:22:27;18.60;82.60
21298;DHT22;10808;48.010;11.326;2023-03-23T14:25:02;18.50;83.50
21298;DHT22;10808;48.010;11.326;2023-03-23T14:27:36;18.50;83.70
21298;DHT22;10808;48.010;11.326;2023-03-23T14:30:12;18.50;84.50
21298;DHT22;10808;48.010;11.326;2023-03-23T14:32:41;18.50;84.60
21298;DHT22;10808;48.010;11.326;2023-03-23T14:35:16;18.50;84.00
21298;DHT22;10808;48.010;11.326;2023-03-23T14:37:48;18.40;84.30
21298;DHT22;10808;48.010;11.326;2023-03-23T14:40:17;18.30;84.20
21298;DHT22;10808;48.010;11.326;2023-03-23T14:42:43;18.20;84.20
21298;DHT22;10808;48.010;11.326;2023-03-23T14:45:16;18.20;84.50
21298;DHT22;10808;48.010;11.326;2023-03-23T14:47:48;18.10;85.00
21298;DHT22;10808;48.010;11.326;2023-03-23T14:50:31;18.10;85.30
21298;DHT22;10808;48.010;11.326;2023-03-23T14:53:13;18.10;85.70
21298;DHT22;10808;48.010;11.326;2023-03-23T14:55:43;18.10;85.70
21298;DHT22;10808;48.010;11.326;2023-03-23T14:58:14;18.10;87.00
21298;DHT22;10808;48.010;11.326;2023-03-23T15:00:43;18.10;86.50
21298;DHT22;10808;48.010;11.326;2023-03-23T15:03:14;18.10;86.70
21298;DHT22;10808;48.010;11.326;2023-03-23T15:05:44;18.10;86.80
21298;DHT22;10808;48.010;11.326;2023-03-23T15:08:15;18.10;86.20
21298;DHT22;10808;48.010;11.326;2023-03-23T15:11:04;18.00;86.60
21298;DHT22;10808;48.010;11.326;2023-03-23T15:13:32;17.90;86.80
21298;DHT22;10808;48.010;11.326;2023-03-23T15:16:13;17.90;87.20
21298;DHT22;10808;48.010;11.326;2023-03-23T15:18:51;17.90;87.40
21298;DHT22;10808;48.010;11.326;2023-03-23T15:21:47;17.80;87.50
21298;DHT22;10808;48.010;11.326;2023-03-23T15:24:23;17.80;87.70
21298;DHT22;10808;48.010;11.326;2023-03-23T15:26:50;17.80;88.80
21298;DHT22;10808;48.010;11.326;2023-03-23T15:29:20;17.80;88.90
21298;DHT22;10808;48.010;11.326;2023-03-23T15:31:54;17.80;88.80
21298;DHT22;10808;48.010;11.326;2023-03-23T15:34:35;17.80;89.30
21298;DHT22;10808;48.010;11.326;2023-03-23T15:39:46;17.70;89.60
21298;DHT22;10808;48.010;11.326;2023-03-23T15:42:33;17.70;89.80
21298;DHT22;10808;48.010;11.326;2023-03-23T15:47:48;17.70;89.90
21298;DHT22;10808;48.010;11.326;2023-03-23T15:50:18;17.70;90.10
21298;DHT22;10808;48.010;11.326;2023-03-23T15:52:45;17.70;89.80
21298;DHT22;10808;48.010;11.326;2023-03-23T15:55:19;17.60;90.00
21298;DHT22;10808;48.010;11.326;2023-03-23T15:57:48;17.60;90.30
21298;DHT22;10808;48.010;11.326;2023-03-23T16:00:16;17.60;90.40
21298;DHT22;10808;48.010;11.326;2023-03-23T16:02:45;17.50;90.80
21298;DHT22;10808;48.010;11.326;2023-03-23T16:05:12;17.40;91.20
21298;DHT22;10808;48.010;11.326;2023-03-23T16:07:38;17.30;91.70
21298;DHT22;10808;48.010;11.326;2023-03-23T16:10:06;17.20;92.40
21298;DHT22;10808;48.010;11.326;2023-03-23T16:12:32;17.10;93.10
21298;DHT22;10808;48.010;11.326;2023-03-23T16:14:58;17.00;93.20
21298;DHT22;10808;48.010;11.326;2023-03-23T16:17:25;16.80;93.10
21298;DHT22;10808;48.010;11.326;2023-03-23T16:19:51;16.70;93.80
21298;DHT22;10808;48.010;11.326;2023-03-23T16:22:17;16.60;94.10
21298;DHT22;10808;48.010;11.326;2023-03-23T16:24:43;16.50;94.50
21298;DHT22;10808;48.010;11.326;2023-03-23T16:27:10;16.50;94.50
21298;DHT22;10808;48.010;11.326;2023-03-23T16:29:36;16.40;94.20
21298;DHT22;10808;48.010;11.326;2023-03-23T16:32:02;16.40;94.10
21298;DHT22;10808;48.010;11.326;2023-03-23T16:34:28;16.30;94.30
21298;DHT22;10808;48.010;11.326;2023-03-23T16:36:57;16.20;94.00
21298;DHT22;10808;48.010;11.326;2023-03-23T16:39:23;16.20;94.20
21298;DHT22;10808;48.010;11.326;2023-03-23T16:41:49;16.20;94.10
21298;DHT22;10808;48.010;11.326;2023-03-23T16:44:15;16.20;94.30
21298;DHT22;10808;48.010;11.326;2023-03-23T16:46:41;16.20;94.80
21298;DHT22;10808;48.010;11.326;2023-03-23T16:49:07;16.20;94.50
21298;DHT22;10808;48.010;11.326;2023-03-23T16:51:34;16.10;94.60
21298;DHT22;10808;48.010;11.326;2023-03-23T16:54:00;16.10;94.60
21298;DHT22;10808;48.010;11.326;2023-03-23T16:56:26;16.10;94.50
21298;DHT22;10808;48.010;11.326;2023-03-23T16:58:52;16.00;94.70
21298;DHT22;10808;48.010;11.326;2023-03-23T17:01:18;16.00;94.90
21298;DHT22;10808;48.010;11.326;2023-03-23T17:03:44;16.00;95.00
21298;DHT22;10808;48.010;11.326;2023-03-23T17:06:10;15.90;95.20
21298;DHT22;10808;48.010;11.326;2023-03-23T17:08:36;15.90;95.50
21298;DHT22;10808;48.010;11.326;2023-03-23T17:11:02;15.90;95.90
21298;DHT22;10808;48.010;11.326;2023-03-23T17:13:28;15.80;95.80
21298;DHT22;10808;48.010;11.326;2023-03-23T17:15:55;15.80;95.90
21298;DHT22;10808;48.010;11.326;2023-03-23T17:18:23;15.80;95.90